Station: Campbelltown  

  Atmospheric Gas Attenuation - ITU Rec 676-11   ----------------- dB/100km -----------------
Date Time Temp RH % AH g/m3 Dew Point Wind Direction Speed kph Gust kph Barometer mB Rainfall Since 9am 24GHz 47GHz 76GHz 122GHz 134GHz 241GHz
08/05 12:30 18.8 39 6.28 4.6 17 37 1013.1 0 14.5 21.1 29.1 75.8 64.9 221.6
08/05 12:20 18.5 40 6.33 4.7 11 17 1013.1 0 14.6 21.3 29.3 76.6 65.7 224.4
08/05 12:10 18.5 41 6.49 5 17 30 1013.1 0 14.9 21.5 29.9 78.0 67.5 230.8
08/05 12:00 18.2 40 6.22 4.4 19 35 1013.1 0 14.4 21.2 29.1 75.8 64.7 220.8
08/05 11:50 18 42 6.45 4.9 13 19 1013.1 0 14.9 21.5 29.9 78.2 67.5 230.6
08/05 11:40 17.6 41 6.15 4.2 19 33 1013.1 0 14.2 21.2 29.0 75.7 64.4 219.6
08/05 11:30 17.7 42 6.34 4.6 15 28 1013.1 0 14.6 21.5 29.7 77.4 66.5 227.0
08/05 11:20 17.6 44 6.6 5.2 19 26 1013.1 0 15.2 21.8 30.6 80.0 69.5 237.8
08/05 11:10 17.2 43 6.3 4.5 19 26 1013.1 0 14.6 21.5 29.7 77.5 66.4 226.8
08/05 11:00 17.4 43 6.37 4.7 11 26 1013.1 0 14.7 21.6 29.9 78.0 67.0 229.0
08/05 10:50 16.8 44 6.29 4.5 20 28 1013.1 0 14.6 21.6 29.8 77.8 66.6 227.5
08/05 10:40 16.4 44 6.14 4.1 17 26 1013.1 0 14.3 21.5 29.4 76.8 65.2 222.5
08/05 10:30 16.7 46 6.54 5 15 33 1013.1 0 15.1 22.0 30.7 80.3 69.6 238.0
08/05 10:20 16.8 47 6.72 5.4 11 15 1013.1 0 15.5 22.2 31.3 81.9 71.7 245.1
08/05 10:10 16.3 46 6.38 4.7 15 19 1013.1 0 14.8 21.8 30.3 79.1 68.1 232.6
08/05 10:00 16.4 48 6.7 5.4 15 33 1013.1 0 15.4 22.3 31.4 82.1 71.8 245.5
08/05 09:50 16 47 6.4 4.7 17 22 1013.1 0 14.8 21.9 30.5 79.6 68.6 234.3
08/05 09:40 16 48 6.54 5 17 22 1013.1 0 15.1 22.1 31.0 81.0 70.2 240.1
08/05 09:30 15.5 50 6.61 5.1 15 28 1013.1 0 15.3 22.4 31.4 82.1 71.5 244.5
08/05 09:20 15.3 52 6.79 5.5 9 13 1013.1 0 15.7 22.7 32.2 84.1 73.9 252.7
08/05 09:10 14.7 51 6.42 4.7 9 11 1013.1 0 14.9 22.3 31.1 81.1 70.0 238.9
08/05 09:00 14.6 54 6.76 5.4 13 24 1013.1 0 15.6 22.8 32.3 84.5 74.2 253.6
08/05 08:50 14 54 6.51 4.9 11 17 1013.1 0 15.1 22.6 31.7 82.7 71.7 244.8
08/05 08:40 13.6 54 6.36 4.5 15 20 1013.1 0 14.8 22.5 31.3 81.6 70.2 239.6
08/05 08:30 13.5 56 6.55 4.9 13 26 1013.1 0 15.2 22.8 32.0 83.6 72.6 248.1
08/05 08:20 12.9 56 6.31 4.3 13 15 1013.1 0 14.7 22.6 31.3 81.9 70.2 239.6
08/05 08:10 12.7 59 6.57 4.9 7 9 1013.1 0 15.3 23.0 32.4 84.7 73.6 251.4
08/05 08:00 12.1 58 6.22 4.1 13 20 1013.1 0 14.6 22.6 31.3 81.8 69.8 238.1
08/05 07:50 11.6 60 6.24 4.1 9 11 1013.1 0 14.6 22.8 31.6 82.5 70.5 240.4
08/05 07:40 11.3 62 6.33 4.3 15 20 1013.1 0 14.9 23.0 32.0 83.7 71.9 245.3
08/05 07:30 11 62 6.21 4 11 20 1013.1 0 14.6 22.9 31.7 82.8 70.7 240.9
08/05 07:20 10.5 63 6.11 3.8 9 13 1013.1 0 14.4 22.9 31.5 82.3 69.9 238.0
08/05 07:10 10 65 6.11 3.7 11 15 1013.1 0 14.4 23.0 31.7 82.8 70.3 239.5
08/05 07:00 9.1 67 5.95 3.3 7 13 1013.1 0 14.1 23.0 31.5 82.1 69.1 235.1
08/05 06:50 8.9 68 5.96 3.3 9 13 1013.1 0 14.1 23.0 31.6 82.4 69.4 236.1
08/05 06:40 9 66 5.82 3 6 6 1013.1 0 13.8 22.8 31.0 80.9 67.5 229.6
08/05 06:30 7.9 72 5.92 3.2 7 13 1013.1 0 14.1 23.2 31.8 83.1 69.8 237.3
08/05 06:20 8.1 69 5.74 2.8 7 11 1013.1 0 13.7 22.9 31.0 81.0 67.3 228.6
08/05 06:10 8.2 70 5.86 3.1 7 9 1013.1 0 14.0 23.1 31.5 82.1 68.7 233.7
08/05 06:00 7.4 73 5.81 2.9 7 13 1013.1 0 13.9 23.2 31.6 82.4 68.8 233.8
08/05 05:50 6.1 81 5.92 3.1 7 11 1013.1 0 14.2 23.7 32.5 85.0 71.4 242.8
08/05 05:40 6.1 82 5.99 3.3 4 6 1013.1 0 14.3 23.8 32.8 85.7 72.3 246.0
08/05 05:30 6.6 76 5.74 2.7 6 20 1013.1 0 13.8 23.3 31.6 82.5 68.6 233.0
08/05 05:20 6.7 77 5.85 3 11 20 1013.1 0 14.0 23.4 32.0 83.6 69.9 237.7
08/05 05:10 6.6 77 5.82 2.9 4 6 1013.1 0 13.9 23.4 31.9 83.4 69.6 236.7
08/05 05:00 6.6 75 5.66 2.5 0 2 1013.1 0 13.6 23.1 31.3 81.7 67.5 229.4
08/05 04:50 7 74 5.74 2.7 4 6 1013.1 0 13.7 23.2 31.5 82.1 68.2 231.8
08/05 04:40 7.6 70 5.64 2.5 7 9 1013.1 0 13.5 22.9 30.8 80.5 66.4 225.6
08/05 04:30 7.7 67 5.44 2 6 7 1013.1 0 13.1 22.5 30.0 78.3 63.8 216.4
08/05 04:20 8.2 66 5.53 2.2 4 6 1013.1 0 13.3 22.5 30.2 78.7 64.5 219.0
08/05 04:10 8.4 64 5.43 2 6 7 1013.1 0 13.0 22.3 29.7 77.5 63.1 214.0
08/05 04:00 8.2 66 5.53 2.2 6 11 1013.1 0 13.3 22.5 30.2 78.7 64.5 219.0
08/05 03:50 7.9 68 5.59 2.4 7 7 1013.1 0 13.4 22.7 30.5 79.7 65.5 222.5
08/05 03:40 7.6 67 5.4 1.9 4 6 1013.1 0 13.0 22.5 29.9 78.0 63.4 214.9
08/05 03:30 8.8 62 5.4 1.9 2 13 1013.1 0 13.0 22.2 29.5 76.8 62.4 211.7
08/05 03:20 9 61 5.38 1.9 6 7 1013.1 0 12.9 22.1 29.3 76.4 62.0 210.3
08/05 03:10 8.7 62 5.36 1.8 6 7 1013.1 0 12.9 22.2 29.4 76.5 62.0 210.2
08/05 03:00 8.7 63 5.45 2.1 6 11 1013.1 0 13.1 22.3 29.7 77.4 63.1 214.1
08/05 02:50 8.7 63 5.45 2.1 6 11 1013.1 0 13.1 22.3 29.7 77.4 63.1 214.1
08/05 02:40 7.9 66 5.42 2 9 11 1013.1 0 13.0 22.4 29.9 77.9 63.4 214.9
08/05 02:30 8 65 5.38 1.8 7 17 1013.1 0 12.9 22.4 29.7 77.4 62.8 212.9
08/05 02:20 8 64 5.29 1.6 9 11 1013.1 0 12.7 22.2 29.4 76.5 61.7 208.9
08/05 02:10 8.4 65 5.52 2.2 11 15 1013.1 0 13.2 22.5 30.1 78.4 64.2 218.0
08/05 02:00 6.9 69 5.31 1.6 2 6 1013.1 0 12.8 22.5 29.8 77.8 62.8 212.7
08/05 01:50 6.9 69 5.31 1.6 4 6 1013.1 0 12.8 22.5 29.8 77.8 62.8 212.7
08/05 01:40 5.9 73 5.27 1.4 0 0 1013.1 0 12.8 22.7 30.1 78.3 63.1 213.6
08/05 01:30 5.5 75 5.27 1.4 0 7 1013.1 0 12.8 22.8 30.2 78.7 63.4 214.7
08/05 01:20 5.8 72 5.16 1.2 0 0 1013.1 0 12.5 22.6 29.7 77.3 61.7 208.9
08/05 01:10 5.8 70 5.02 0.8 0 0 1013.1 0 12.2 22.3 29.1 75.8 60.0 202.6
08/05 01:00 6.3 68 5.04 0.8 0 2 1013.1 0 12.3 22.3 29.0 75.6 59.8 202.3
08/05 00:50 6.6 65 4.91 0.5 0 2 1013.1 0 12.0 22.0 28.4 74.0 58.0 195.8
08/05 00:40 7.3 62 4.9 0.5 0 0 1013.1 0 11.9 21.8 28.1 73.2 57.3 193.6
08/05 00:20 7.3 61 4.82 0.3 2 6 1013.1 0 11.8 21.7 27.8 72.4 56.3 190.1
08/05 00:10 7.2 60 4.71 0 6 7 1013.1 0 11.5 21.5 27.5 71.4 55.0 185.6
08/05 00:00 7.5 60 4.8 0.3 6 13 1013.1 0 11.7 21.6 27.7 72.0 55.9 188.8
07/05 23:50 7.1 63 4.92 0.5 0 2 1013.1 0 12.0 21.9 28.3 73.6 57.7 195.0
07/05 23:40 8 57 4.71 0 6 7 1013.1 0 11.5 21.3 27.2 70.7 54.5 183.7
07/05 23:30 8.3 56 4.72 0.1 6 11 1013.1 0 11.5 21.3 27.1 70.5 54.4 183.5
07/05 23:20 8.2 57 4.78 0.2 9 9 1013.1 0 11.7 21.4 27.4 71.2 55.2 186.3
07/05 23:10 7.8 59 4.82 0.3 7 7 1013.1 0 11.8 21.6 27.7 72.0 56.0 188.9
07/05 23:00 7.8 59 4.82 0.3 6 9 1013.1 0 11.8 21.6 27.7 72.0 56.0 188.9
07/05 22:50 8.4 55 4.67 -0.1 4 6 1013.1 0 11.4 21.2 26.9 69.9 53.7 181.1
07/05 22:40 8.8 53 4.61 -0.2 6 7 1013.1 0 11.3 21.0 26.6 69.0 52.7 177.7
07/05 22:30 8.8 54 4.7 0 7 11 1013.1 0 11.5 21.1 26.9 69.9 53.8 181.5
07/05 22:20 8.3 55 4.64 -0.2 7 7 1013.1 0 11.4 21.2 26.8 69.7 53.4 180.1
07/05 22:10 8.5 56 4.78 0.2 6 9 1013.1 0 11.6 21.3 27.3 70.9 55.0 185.6
07/05 22:00 8.5 54 4.61 -0.3 6 7 1013.1 0 11.3 21.1 26.7 69.3 52.9 178.3
07/05 21:50 9.3 51 4.58 -0.3 7 11 1013.1 0 11.2 20.9 26.3 68.3 52.1 175.3
07/05 21:40 9 52 4.59 -0.3 4 6 1013.1 0 11.2 20.9 26.4 68.6 52.4 176.4
07/05 21:30 9.3 50 4.49 -0.6 6 7 1013.1 0 11.0 20.7 26.0 67.4 51.0 171.6
07/05 21:20 9.7 49 4.52 -0.5 7 11 1013.1 0 11.1 20.7 25.9 67.4 51.1 172.0
07/05 21:10 9.8 49 4.55 -0.4 7 9 1013.1 0 11.1 20.7 26.0 67.6 51.4 173.0
07/05 21:00 9.9 48 4.48 -0.6 9 20 1013.1 0 11.0 20.6 25.7 66.8 50.5 169.9
07/05 20:50 9.9 48 4.48 -0.6 9 13 1013.1 0 11.0 20.6 25.7 66.8 50.5 169.9
07/05 20:40 9.7 48 4.43 -0.8 9 13 1013.1 0 10.9 20.5 25.6 66.5 50.0 168.2
07/05 20:30 10 47 4.42 -0.8 9 19 1013.1 0 10.8 20.5 25.5 66.2 49.7 167.2
07/05 20:20 10.4 46 4.43 -0.7 9 11 1013.1 0 10.8 20.4 25.4 65.9 49.6 166.8
07/05 20:10 10.4 46 4.43 -0.7 13 15 1013.1 0 10.8 20.4 25.4 65.9 49.6 166.8
07/05 20:00 10.7 44 4.32 -1 11 24 1013.1 0 10.6 20.2 24.9 64.7 48.1 161.7
07/05 19:50 10.9 44 4.38 -0.9 15 20 1013.1 0 10.7 20.2 25.1 65.1 48.7 163.7

Last Refresh: 08-May-2026 12:08:51

Bureau of Meteorology